sensor_id;sensor_type;location;lat;lon;timestamp;pressure;altitude;pressure_sealevel;temperature;humidity
66381;BME280;53177;52.648;1.214;2023-05-02T00:01:40;101857.97;;;9.24;94.03
66381;BME280;53177;52.648;1.214;2023-05-02T00:04:06;101861.50;;;9.26;94.11
66381;BME280;53177;52.648;1.214;2023-05-02T00:06:31;101858.88;;;9.26;94.09
66381;BME280;53177;52.648;1.214;2023-05-02T00:08:57;101871.16;;;9.21;94.40
66381;BME280;53177;52.648;1.214;2023-05-02T00:11:22;101859.75;;;9.19;94.51
66381;BME280;53177;52.648;1.214;2023-05-02T00:13:48;101859.72;;;9.21;94.46
66381;BME280;53177;52.648;1.214;2023-05-02T00:16:14;101868.53;;;9.15;94.62
66381;BME280;53177;52.648;1.214;2023-05-02T00:18:39;101868.53;;;9.14;94.54
66381;BME280;53177;52.648;1.214;2023-05-02T00:21:05;101877.31;;;9.13;94.68
66381;BME280;53177;52.648;1.214;2023-05-02T00:23:31;101877.31;;;9.13;94.29
66381;BME280;53177;52.648;1.214;2023-05-02T00:25:56;101880.81;;;9.10;94.66
66381;BME280;53177;52.648;1.214;2023-05-02T00:28:21;101890.50;;;9.11;94.66
66381;BME280;53177;52.648;1.214;2023-05-02T00:30:47;101895.81;;;9.22;94.51
66381;BME280;53177;52.648;1.214;2023-05-02T00:33:13;101901.06;;;9.20;94.26
66381;BME280;53177;52.648;1.214;2023-05-02T00:35:40;101898.44;;;9.16;94.10
66381;BME280;53177;52.648;1.214;2023-05-02T00:38:05;101892.28;;;9.12;94.62
66381;BME280;53177;52.648;1.214;2023-05-02T00:40:42;101904.59;;;9.15;94.38
66381;BME280;53177;52.648;1.214;2023-05-02T00:43:08;101899.31;;;9.18;93.83
66381;BME280;53177;52.648;1.214;2023-05-02T00:45:33;101901.94;;;9.10;93.60
66381;BME280;53177;52.648;1.214;2023-05-02T00:47:58;101894.00;;;9.06;93.53
66381;BME280;53177;52.648;1.214;2023-05-02T00:50:26;101903.69;;;8.98;93.69
66381;BME280;53177;52.648;1.214;2023-05-02T00:52:54;101912.44;;;8.98;93.95
66381;BME280;53177;52.648;1.214;2023-05-02T00:55:19;101910.69;;;8.93;94.08
66381;BME280;53177;52.648;1.214;2023-05-02T00:57:44;101915.97;;;8.94;93.92
66381;BME280;53177;52.648;1.214;2023-05-02T01:00:10;101908.03;;;8.88;94.36
66381;BME280;53177;52.648;1.214;2023-05-02T01:12:23;101909.78;;;8.82;94.70
66381;BME280;53177;52.648;1.214;2023-05-02T01:14:53;101900.09;;;8.80;94.74
66381;BME280;53177;52.648;1.214;2023-05-02T01:17:22;101898.34;;;8.86;94.46
66381;BME280;53177;52.648;1.214;2023-05-02T01:19:55;101904.47;;;8.77;93.99
66381;BME280;53177;52.648;1.214;2023-05-02T01:22:23;101912.41;;;8.78;94.12
66381;BME280;53177;52.648;1.214;2023-05-02T01:30:27;101915.84;;;8.59;93.39
66381;BME280;53177;52.648;1.214;2023-05-02T01:32:54;101911.41;;;8.52;93.55
66381;BME280;53177;52.648;1.214;2023-05-02T01:35:21;101914.06;;;8.55;93.40
66381;BME280;53177;52.648;1.214;2023-05-02T01:37:48;101916.69;;;8.58;93.33
66381;BME280;53177;52.648;1.214;2023-05-02T01:40:17;101922.84;;;8.57;93.50
66381;BME280;53177;52.648;1.214;2023-05-02T01:42:44;101929.88;;;8.61;93.11
66381;BME280;53177;52.648;1.214;2023-05-02T01:45:12;101931.69;;;8.61;92.84
66381;BME280;53177;52.648;1.214;2023-05-02T01:47:39;101933.44;;;8.63;93.18
66381;BME280;53177;52.648;1.214;2023-05-02T01:50:11;101932.50;;;8.55;93.19
66381;BME280;53177;52.648;1.214;2023-05-02T01:52:40;101941.28;;;8.54;93.25
66381;BME280;53177;52.648;1.214;2023-05-02T01:55:08;101948.28;;;8.45;93.50
66381;BME280;53177;52.648;1.214;2023-05-02T01:57:36;101961.44;;;8.39;93.32
66381;BME280;53177;52.648;1.214;2023-05-02T02:00:05;101964.94;;;8.38;93.11
66381;BME280;53177;52.648;1.214;2023-05-02T02:02:34;101965.78;;;8.35;93.18
66381;BME280;53177;52.648;1.214;2023-05-02T02:05:03;101966.72;;;8.42;93.34
66381;BME280;53177;52.648;1.214;2023-05-02T02:07:30;101971.09;;;8.41;93.57
66381;BME280;53177;52.648;1.214;2023-05-02T02:09:55;101976.31;;;8.30;93.81
66381;BME280;53177;52.648;1.214;2023-05-02T02:14:50;101983.25;;;8.24;94.47
66381;BME280;53177;52.648;1.214;2023-05-02T02:17:26;101979.72;;;8.23;95.03
66381;BME280;53177;52.648;1.214;2023-05-02T02:19:55;101985.84;;;8.21;94.90
66381;BME280;53177;52.648;1.214;2023-05-02T02:22:26;101986.69;;;8.15;94.43
66381;BME280;53177;52.648;1.214;2023-05-02T02:24:53;101985.78;;;8.13;94.25
66381;BME280;53177;52.648;1.214;2023-05-02T02:27:19;101980.47;;;8.06;94.88
66381;BME280;53177;52.648;1.214;2023-05-02T02:29:45;101976.13;;;8.11;94.61
66381;BME280;53177;52.648;1.214;2023-05-02T02:32:10;101983.06;;;8.00;94.42
66381;BME280;53177;52.648;1.214;2023-05-02T02:34:36;101984.75;;;7.90;95.24
66381;BME280;53177;52.648;1.214;2023-05-02T02:37:08;101984.69;;;7.87;95.43
66381;BME280;53177;52.648;1.214;2023-05-02T02:42:10;101995.19;;;7.84;95.25
66381;BME280;53177;52.648;1.214;2023-05-02T02:55:12;101994.97;;;7.57;95.82
66381;BME280;53177;52.648;1.214;2023-05-02T02:57:50;101996.69;;;7.55;96.08
66381;BME280;53177;52.648;1.214;2023-05-02T03:00:20;101991.47;;;7.59;95.50
66381;BME280;53177;52.648;1.214;2023-05-02T03:02:47;101996.72;;;7.56;95.70
66381;BME280;53177;52.648;1.214;2023-05-02T03:05:13;101997.69;;;7.67;95.80
66381;BME280;53177;52.648;1.214;2023-05-02T03:07:40;102003.81;;;7.65;95.74
66381;BME280;53177;52.648;1.214;2023-05-02T03:10:06;102003.81;;;7.65;95.40
66381;BME280;53177;52.648;1.214;2023-05-02T03:12:32;102005.56;;;7.64;95.53
66381;BME280;53177;52.648;1.214;2023-05-02T03:17:32;102013.41;;;7.61;96.01
66381;BME280;53177;52.648;1.214;2023-05-02T03:19:57;102014.28;;;7.59;96.00
66381;BME280;53177;52.648;1.214;2023-05-02T03:22:23;102016.91;;;7.59;95.87
66381;BME280;53177;52.648;1.214;2023-05-02T03:24:48;102033.59;;;7.59;95.62
66381;BME280;53177;52.648;1.214;2023-05-02T03:27:13;102024.03;;;7.67;94.90
66381;BME280;53177;52.648;1.214;2023-05-02T03:29:39;102036.34;;;7.73;94.68
66381;BME280;53177;52.648;1.214;2023-05-02T03:32:04;102031.88;;;7.63;95.15
66381;BME280;53177;52.648;1.214;2023-05-02T03:34:30;102030.94;;;7.56;95.38
66381;BME280;53177;52.648;1.214;2023-05-02T03:36:55;102023.03;;;7.56;95.13
66381;BME280;53177;52.648;1.214;2023-05-02T03:39:20;102023.88;;;7.54;95.65
66381;BME280;53177;52.648;1.214;2023-05-02T03:41:46;102022.19;;;7.62;95.57
66381;BME280;53177;52.648;1.214;2023-05-02T03:44:11;102030.97;;;7.61;95.19
66381;BME280;53177;52.648;1.214;2023-05-02T03:46:37;102033.59;;;7.62;94.60
66381;BME280;53177;52.648;1.214;2023-05-02T03:49:07;102040.53;;;7.54;95.03
66381;BME280;53177;52.648;1.214;2023-05-02T03:51:38;102044.91;;;7.52;95.19
66381;BME280;53177;52.648;1.214;2023-05-02T03:54:07;102043.13;;;7.48;95.08
66381;BME280;53177;52.648;1.214;2023-05-02T03:56:34;102052.81;;;7.52;94.87
66381;BME280;53177;52.648;1.214;2023-05-02T03:58:59;102051.97;;;7.56;95.06
66381;BME280;53177;52.648;1.214;2023-05-02T04:01:25;102052.84;;;7.54;94.94
66381;BME280;53177;52.648;1.214;2023-05-02T04:03:51;102048.47;;;7.56;94.50
66381;BME280;53177;52.648;1.214;2023-05-02T04:06:16;102053.69;;;7.54;93.86
66381;BME280;53177;52.648;1.214;2023-05-02T04:08:42;102061.59;;;7.54;94.05
66381;BME280;53177;52.648;1.214;2023-05-02T04:11:07;102065.91;;;7.46;93.99
66381;BME280;53177;52.648;1.214;2023-05-02T04:13:32;102069.41;;;7.45;93.54
66381;BME280;53177;52.648;1.214;2023-05-02T04:15:58;102069.41;;;7.45;92.98
66381;BME280;53177;52.648;1.214;2023-05-02T04:18:23;102069.28;;;7.36;92.49
66381;BME280;53177;52.648;1.214;2023-05-02T04:20:49;102078.00;;;7.32;92.45
66381;BME280;53177;52.648;1.214;2023-05-02T04:23:14;102071.88;;;7.31;92.32
66381;BME280;53177;52.648;1.214;2023-05-02T04:25:40;102070.00;;;7.24;92.82
66381;BME280;53177;52.648;1.214;2023-05-02T04:28:05;102071.72;;;7.21;92.50
66381;BME280;53177;52.648;1.214;2023-05-02T04:30:31;102068.16;;;7.17;92.78
66381;BME280;53177;52.648;1.214;2023-05-02T04:32:56;102071.69;;;7.18;91.64
66381;BME280;53177;52.648;1.214;2023-05-02T04:35:22;102078.72;;;7.19;91.61
66381;BME280;53177;52.648;1.214;2023-05-02T04:37:47;102076.25;;;7.31;92.02
66381;BME280;53177;52.648;1.214;2023-05-02T04:40:12;102085.78;;;7.24;90.98
66381;BME280;53177;52.648;1.214;2023-05-02T04:42:38;102093.72;;;7.26;91.25
66381;BME280;53177;52.648;1.214;2023-05-02T04:45:06;102086.72;;;7.26;91.02
66381;BME280;53177;52.648;1.214;2023-05-02T04:47:31;102089.28;;;7.20;91.16
66381;BME280;53177;52.648;1.214;2023-05-02T04:49:56;102091.13;;;7.29;90.93
66381;BME280;53177;52.648;1.214;2023-05-02T04:52:22;102098.19;;;7.33;90.67
66381;BME280;53177;52.648;1.214;2023-05-02T04:54:48;102099.03;;;7.32;90.55
66381;BME280;53177;52.648;1.214;2023-05-02T04:57:13;102100.03;;;7.40;90.44
66381;BME280;53177;52.648;1.214;2023-05-02T04:59:38;102107.09;;;7.43;90.73
66381;BME280;53177;52.648;1.214;2023-05-02T05:02:04;102115.81;;;7.40;89.71
66381;BME280;53177;52.648;1.214;2023-05-02T05:04:29;102122.94;;;7.47;89.54
66381;BME280;53177;52.648;1.214;2023-05-02T05:06:55;102122.78;;;7.37;89.82
66381;BME280;53177;52.648;1.214;2023-05-02T05:09:20;102122.69;;;7.29;89.56
66381;BME280;53177;52.648;1.214;2023-05-02T05:11:46;102123.66;;;7.35;90.24
66381;BME280;53177;52.648;1.214;2023-05-02T05:14:11;102135.09;;;7.38;89.43
66381;BME280;53177;52.648;1.214;2023-05-02T05:16:37;102136.16;;;7.52;88.99
66381;BME280;53177;52.648;1.214;2023-05-02T05:19:03;102131.81;;;7.54;89.42
66381;BME280;53177;52.648;1.214;2023-05-02T05:21:29;102135.25;;;7.51;89.18
66381;BME280;53177;52.648;1.214;2023-05-02T05:23:55;102128.19;;;7.47;88.60
66381;BME280;53177;52.648;1.214;2023-05-02T05:26:20;102131.63;;;7.39;87.91
66381;BME280;53177;52.648;1.214;2023-05-02T05:28:46;102140.53;;;7.51;88.98
66381;BME280;53177;52.648;1.214;2023-05-02T05:31:12;102152.16;;;7.68;88.41
66381;BME280;53177;52.648;1.214;2023-05-02T05:33:41;102150.50;;;7.78;87.96
66381;BME280;53177;52.648;1.214;2023-05-02T05:36:11;102153.03;;;7.69;87.46
66381;BME280;53177;52.648;1.214;2023-05-02T05:38:38;102155.81;;;7.79;87.47
66381;BME280;53177;52.648;1.214;2023-05-02T05:41:04;102160.94;;;7.67;86.34
66381;BME280;53177;52.648;1.214;2023-05-02T05:43:30;102165.47;;;7.80;87.25
66381;BME280;53177;52.648;1.214;2023-05-02T05:45:55;102163.69;;;7.78;86.94
66381;BME280;53177;52.648;1.214;2023-05-02T05:48:21;102168.06;;;7.77;86.63
66381;BME280;53177;52.648;1.214;2023-05-02T05:50:48;102169.81;;;7.77;85.74
66381;BME280;53177;52.648;1.214;2023-05-02T05:53:13;102175.16;;;7.83;86.97
66381;BME280;53177;52.648;1.214;2023-05-02T05:55:39;102175.22;;;7.89;86.36
66381;BME280;53177;52.648;1.214;2023-05-02T05:58:05;102172.59;;;7.89;86.66
66381;BME280;53177;52.648;1.214;2023-05-02T06:00:33;102177.88;;;7.92;86.31
66381;BME280;53177;52.648;1.214;2023-05-02T06:02:59;102173.56;;;7.99;86.22
66381;BME280;53177;52.648;1.214;2023-05-02T06:05:25;102179.75;;;8.02;85.64
66381;BME280;53177;52.648;1.214;2023-05-02T06:07:50;102183.25;;;8.00;84.24
66381;BME280;53177;52.648;1.214;2023-05-02T06:10:15;102184.16;;;8.02;84.10
66381;BME280;53177;52.648;1.214;2023-05-02T06:12:41;102193.91;;;8.09;84.80
66381;BME280;53177;52.648;1.214;2023-05-02T06:15:08;102190.34;;;8.05;83.83
66381;BME280;53177;52.648;1.214;2023-05-02T06:17:33;102195.66;;;8.10;84.26
66381;BME280;53177;52.648;1.214;2023-05-02T06:19:59;102193.94;;;8.13;83.61
66381;BME280;53177;52.648;1.214;2023-05-02T06:22:24;102201.03;;;8.19;83.84
66381;BME280;53177;52.648;1.214;2023-05-02T06:24:49;102209.00;;;8.28;83.32
66381;BME280;53177;52.648;1.214;2023-05-02T06:27:15;102209.94;;;8.28;82.71
66381;BME280;53177;52.648;1.214;2023-05-02T06:29:40;102208.31;;;8.38;82.78
66381;BME280;53177;52.648;1.214;2023-05-02T06:32:06;102210.06;;;8.38;81.25
66381;BME280;53177;52.648;1.214;2023-05-02T06:34:32;102213.63;;;8.44;81.75
66381;BME280;53177;52.648;1.214;2023-05-02T06:36:58;102212.75;;;8.47;80.48
66381;BME280;53177;52.648;1.214;2023-05-02T06:39:23;102211.88;;;8.45;79.45
66381;BME280;53177;52.648;1.214;2023-05-02T06:41:49;102229.53;;;8.55;80.54
66381;BME280;53177;52.648;1.214;2023-05-02T06:44:14;102229.56;;;8.53;79.25
66381;BME280;53177;52.648;1.214;2023-05-02T06:46:40;102230.47;;;8.58;80.26
66381;BME280;53177;52.648;1.214;2023-05-02T06:49:06;102234.03;;;8.65;80.13
66381;BME280;53177;52.648;1.214;2023-05-02T06:51:31;102236.75;;;8.71;80.88
66381;BME280;53177;52.648;1.214;2023-05-02T06:53:57;102239.34;;;8.68;79.75
66381;BME280;53177;52.648;1.214;2023-05-02T06:56:23;102234.06;;;8.69;79.81
66381;BME280;53177;52.648;1.214;2023-05-02T06:58:50;102233.13;;;8.61;79.42
66381;BME280;53177;52.648;1.214;2023-05-02T07:01:15;102241.06;;;8.66;81.77
66381;BME280;53177;52.648;1.214;2023-05-02T07:03:41;102241.09;;;8.67;79.74
66381;BME280;53177;52.648;1.214;2023-05-02T07:06:06;102241.03;;;8.61;79.67
66381;BME280;53177;52.648;1.214;2023-05-02T07:08:31;102244.56;;;8.63;78.40
66381;BME280;53177;52.648;1.214;2023-05-02T07:10:57;102241.03;;;8.60;78.52
66381;BME280;53177;52.648;1.214;2023-05-02T07:13:22;102244.50;;;8.56;78.28
66381;BME280;53177;52.648;1.214;2023-05-02T07:15:48;102249.81;;;8.59;77.26
66381;BME280;53177;52.648;1.214;2023-05-02T07:18:13;102249.00;;;8.69;78.27
66381;BME280;53177;52.648;1.214;2023-05-02T07:20:38;102255.31;;;8.85;78.80
66381;BME280;53177;52.648;1.214;2023-05-02T07:23:06;102252.78;;;8.94;79.11
66381;BME280;53177;52.648;1.214;2023-05-02T07:25:31;102258.19;;;9.09;79.15
66381;BME280;53177;52.648;1.214;2023-05-02T07:27:57;102257.38;;;9.16;77.85
66381;BME280;53177;52.648;1.214;2023-05-02T07:30:22;102254.69;;;9.14;77.19
66381;BME280;53177;52.648;1.214;2023-05-02T07:32:48;102260.94;;;9.25;78.36
66381;BME280;53177;52.648;1.214;2023-05-02T07:35:13;102257.47;;;9.33;78.77
66381;BME280;53177;52.648;1.214;2023-05-02T07:37:38;102257.38;;;9.19;76.19
66381;BME280;53177;52.648;1.214;2023-05-02T07:40:04;102264.50;;;9.29;77.31
66381;BME280;53177;52.648;1.214;2023-05-02T07:42:31;102268.94;;;9.39;76.80
66381;BME280;53177;52.648;1.214;2023-05-02T07:44:57;102267.22;;;9.41;76.01
66381;BME280;53177;52.648;1.214;2023-05-02T07:47:23;102277.81;;;9.50;77.51
66381;BME280;53177;52.648;1.214;2023-05-02T07:49:52;102260.28;;;9.58;75.55
66381;BME280;53177;52.648;1.214;2023-05-02T07:52:19;102262.09;;;9.64;75.24
66381;BME280;53177;52.648;1.214;2023-05-02T07:54:44;102257.66;;;9.63;74.37
66381;BME280;53177;52.648;1.214;2023-05-02T07:57:11;102264.72;;;9.68;73.79
66381;BME280;53177;52.648;1.214;2023-05-02T07:59:37;102265.69;;;9.75;73.59
66381;BME280;53177;52.648;1.214;2023-05-02T08:02:03;102265.59;;;9.66;72.51
66381;BME280;53177;52.648;1.214;2023-05-02T08:04:28;102265.75;;;9.89;74.22
66381;BME280;53177;52.648;1.214;2023-05-02T08:06:54;102259.59;;;9.90;71.58
66381;BME280;53177;52.648;1.214;2023-05-02T08:09:19;102262.28;;;9.97;71.36
66381;BME280;53177;52.648;1.214;2023-05-02T08:11:45;102271.09;;;10.07;69.56
66381;BME280;53177;52.648;1.214;2023-05-02T08:14:11;102268.47;;;10.07;70.89
66381;BME280;53177;52.648;1.214;2023-05-02T08:16:36;102269.25;;;9.91;68.54
66381;BME280;53177;52.648;1.214;2023-05-02T08:19:01;102270.13;;;9.88;69.57
66381;BME280;53177;52.648;1.214;2023-05-02T08:21:27;102270.19;;;10.02;71.11
66381;BME280;53177;52.648;1.214;2023-05-02T08:23:57;102272.97;;;10.21;68.60
66381;BME280;53177;52.648;1.214;2023-05-02T08:26:22;102265.97;;;10.34;66.68
66381;BME280;53177;52.648;1.214;2023-05-02T08:28:51;102265.09;;;10.38;69.71
66381;BME280;53177;52.648;1.214;2023-05-02T08:31:17;102267.75;;;10.47;69.77
66381;BME280;53177;52.648;1.214;2023-05-02T08:33:42;102273.06;;;10.61;67.68
66381;BME280;53177;52.648;1.214;2023-05-02T08:36:12;102266.94;;;10.88;66.89
66381;BME280;53177;52.648;1.214;2023-05-02T08:38:38;102266.06;;;10.75;66.36
66381;BME280;53177;52.648;1.214;2023-05-02T08:41:11;102268.72;;;11.19;67.84
66381;BME280;53177;52.648;1.214;2023-05-02T08:43:39;102270.50;;;11.23;65.99
66381;BME280;53177;52.648;1.214;2023-05-02T08:46:06;102274.00;;;11.14;65.30
66381;BME280;53177;52.648;1.214;2023-05-02T08:48:34;102280.19;;;11.00;65.49
66381;BME280;53177;52.648;1.214;2023-05-02T08:51:02;102275.75;;;10.99;65.19
66381;BME280;53177;52.648;1.214;2023-05-02T08:53:33;102282.84;;;10.97;64.42
66381;BME280;53177;52.648;1.214;2023-05-02T08:55:59;102284.59;;;11.17;65.21
66381;BME280;53177;52.648;1.214;2023-05-02T08:58:25;102286.34;;;11.47;64.80
66381;BME280;53177;52.648;1.214;2023-05-02T09:00:52;102289.03;;;11.23;62.17
66381;BME280;53177;52.648;1.214;2023-05-02T09:05:52;102292.53;;;11.17;61.75
66381;BME280;53177;52.648;1.214;2023-05-02T09:08:22;102288.09;;;11.80;62.78
66381;BME280;53177;52.648;1.214;2023-05-02T09:10:48;102292.50;;;11.81;60.52
66381;BME280;53177;52.648;1.214;2023-05-02T09:13:32;102293.38;;;11.60;59.33
66381;BME280;53177;52.648;1.214;2023-05-02T09:16:09;102283.69;;;11.64;62.31
66381;BME280;53177;52.648;1.214;2023-05-02T09:18:36;102297.66;;;12.27;63.92
66381;BME280;53177;52.648;1.214;2023-05-02T09:21:09;102303.97;;;11.97;57.44
66381;BME280;53177;52.648;1.214;2023-05-02T09:23:38;102311.06;;;11.55;61.65
66381;BME280;53177;52.648;1.214;2023-05-02T09:26:24;102305.78;;;11.36;58.47
66381;BME280;53177;52.648;1.214;2023-05-02T09:28:53;102321.69;;;11.42;59.41
66381;BME280;53177;52.648;1.214;2023-05-02T09:31:21;102332.25;;;11.69;63.11
66381;BME280;53177;52.648;1.214;2023-05-02T09:33:46;102329.59;;;11.61;58.83
66381;BME280;53177;52.648;1.214;2023-05-02T09:36:14;102335.81;;;11.74;61.73
66381;BME280;53177;52.648;1.214;2023-05-02T09:38:44;102328.72;;;11.79;57.40
66381;BME280;53177;52.648;1.214;2023-05-02T09:41:10;102331.34;;;11.99;58.01
66381;BME280;53177;52.648;1.214;2023-05-02T09:43:37;102335.75;;;12.04;59.54
66381;BME280;53177;52.648;1.214;2023-05-02T09:46:07;102341.09;;;11.82;59.85
66381;BME280;53177;52.648;1.214;2023-05-02T09:48:51;102346.41;;;11.85;61.87
66381;BME280;53177;52.648;1.214;2023-05-02T09:51:18;102346.28;;;12.26;63.32
66381;BME280;53177;52.648;1.214;2023-05-02T09:53:44;102342.63;;;12.49;61.21
66381;BME280;53177;52.648;1.214;2023-05-02T09:56:10;102348.97;;;12.18;58.10
66381;BME280;53177;52.648;1.214;2023-05-02T09:58:36;102351.69;;;11.80;58.52
66381;BME280;53177;52.648;1.214;2023-05-02T10:01:01;102359.66;;;11.89;65.75
66381;BME280;53177;52.648;1.214;2023-05-02T10:03:28;102361.41;;;11.93;60.21
66381;BME280;53177;52.648;1.214;2023-05-02T10:05:55;102344.56;;;12.05;66.48
66381;BME280;53177;52.648;1.214;2023-05-02T10:08:23;102346.34;;;12.01;60.79
66381;BME280;53177;52.648;1.214;2023-05-02T10:10:59;102347.28;;;11.90;62.14
66381;BME280;53177;52.648;1.214;2023-05-02T10:13:26;102347.19;;;12.14;61.92
66381;BME280;53177;52.648;1.214;2023-05-02T10:16:03;102346.38;;;11.91;62.95
66381;BME280;53177;52.648;1.214;2023-05-02T10:18:39;102354.34;;;11.73;61.61
66381;BME280;53177;52.648;1.214;2023-05-02T10:21:10;102344.63;;;11.67;61.41
66381;BME280;53177;52.648;1.214;2023-05-02T10:23:40;102352.56;;;11.38;61.79
66381;BME280;53177;52.648;1.214;2023-05-02T10:26:05;102353.44;;;11.28;62.74
66381;BME280;53177;52.648;1.214;2023-05-02T10:28:31;102360.53;;;11.34;61.99
66381;BME280;53177;52.648;1.214;2023-05-02T10:30:59;102364.06;;;11.45;63.08
66381;BME280;53177;52.648;1.214;2023-05-02T10:33:27;102357.84;;;11.38;62.42
66381;BME280;53177;52.648;1.214;2023-05-02T10:35:55;102362.28;;;11.60;65.42
66381;BME280;53177;52.648;1.214;2023-05-02T10:38:21;102373.75;;;11.65;62.65
66381;BME280;53177;52.648;1.214;2023-05-02T10:41:04;102372.00;;;11.57;60.38
66381;BME280;53177;52.648;1.214;2023-05-02T10:43:33;102385.25;;;11.40;60.27
66381;BME280;53177;52.648;1.214;2023-05-02T10:46:00;102372.88;;;11.44;66.72
66381;BME280;53177;52.648;1.214;2023-05-02T10:48:28;102376.41;;;11.46;60.17
66381;BME280;53177;52.648;1.214;2023-05-02T10:50:55;102370.25;;;11.48;62.33
66381;BME280;53177;52.648;1.214;2023-05-02T10:53:26;102370.25;;;11.56;61.80
66381;BME280;53177;52.648;1.214;2023-05-02T10:56:20;102368.50;;;11.81;61.63
66381;BME280;53177;52.648;1.214;2023-05-02T10:58:52;102368.50;;;11.90;59.17
66381;BME280;53177;52.648;1.214;2023-05-02T11:04:09;102364.94;;;11.80;60.31
66381;BME280;53177;52.648;1.214;2023-05-02T11:11:54;102377.31;;;11.84;60.50
66381;BME280;53177;52.648;1.214;2023-05-02T11:19:24;102379.91;;;12.17;59.09
66381;BME280;53177;52.648;1.214;2023-05-02T11:21:50;102382.59;;;12.01;59.67
66381;BME280;53177;52.648;1.214;2023-05-02T11:24:53;102387.91;;;11.80;59.14
66381;BME280;53177;52.648;1.214;2023-05-02T11:30:01;102385.25;;;12.01;60.82
66381;BME280;53177;52.648;1.214;2023-05-02T11:35:22;102384.38;;;12.00;59.45
66381;BME280;53177;52.648;1.214;2023-05-02T11:37:58;102382.59;;;11.75;59.24
66381;BME280;53177;52.648;1.214;2023-05-02T11:40:25;102388.81;;;11.85;61.48
66381;BME280;53177;52.648;1.214;2023-05-02T11:42:51;102390.53;;;12.07;62.90
66381;BME280;53177;52.648;1.214;2023-05-02T11:45:17;102399.41;;;11.92;59.52
66381;BME280;53177;52.648;1.214;2023-05-02T11:47:43;102395.88;;;11.84;61.71
66381;BME280;53177;52.648;1.214;2023-05-02T11:50:13;102389.56;;;12.40;67.06
66381;BME280;53177;52.648;1.214;2023-05-02T11:52:40;102406.41;;;12.27;59.28
66381;BME280;53177;52.648;1.214;2023-05-02T11:55:10;102410.88;;;11.96;59.69
66381;BME280;53177;52.648;1.214;2023-05-02T11:57:36;102405.53;;;12.26;63.95
66381;BME280;53177;52.648;1.214;2023-05-02T12:00:02;102416.06;;;12.46;65.24
66381;BME280;53177;52.648;1.214;2023-05-02T12:02:38;102413.44;;;12.31;60.49
66381;BME280;53177;52.648;1.214;2023-05-02T12:05:05;102413.47;;;12.32;61.63
66381;BME280;53177;52.648;1.214;2023-05-02T12:07:42;102412.63;;;12.18;61.13
66381;BME280;53177;52.648;1.214;2023-05-02T12:10:09;102414.41;;;11.99;59.17
66381;BME280;53177;52.648;1.214;2023-05-02T12:12:36;102411.75;;;11.90;60.30
66381;BME280;53177;52.648;1.214;2023-05-02T12:15:08;102404.72;;;11.82;59.79
66381;BME280;53177;52.648;1.214;2023-05-02T12:17:36;102414.41;;;11.95;58.63
66381;BME280;53177;52.648;1.214;2023-05-02T12:20:03;102417.94;;;11.69;61.42
66381;BME280;53177;52.648;1.214;2023-05-02T12:22:29;102429.47;;;11.75;59.91
66381;BME280;53177;52.648;1.214;2023-05-02T12:24:55;102429.41;;;12.02;65.26
66381;BME280;53177;52.648;1.214;2023-05-02T12:27:21;102422.31;;;12.30;62.94
66381;BME280;53177;52.648;1.214;2023-05-02T12:29:47;102424.84;;;12.66;59.27
66381;BME280;53177;52.648;1.214;2023-05-02T12:32:14;102414.94;;;13.01;65.29
66381;BME280;53177;52.648;1.214;2023-05-02T12:34:40;102417.56;;;13.13;62.84
66381;BME280;53177;52.648;1.214;2023-05-02T12:37:07;102419.47;;;12.80;56.21
66381;BME280;53177;52.648;1.214;2023-05-02T12:39:40;102422.22;;;12.57;63.40
66381;BME280;53177;52.648;1.214;2023-05-02T12:42:18;102425.66;;;12.79;61.08
66381;BME280;53177;52.648;1.214;2023-05-02T12:44:45;102433.75;;;12.51;56.58
66381;BME280;53177;52.648;1.214;2023-05-02T12:47:15;102435.56;;;12.24;58.52
66381;BME280;53177;52.648;1.214;2023-05-02T12:49:52;102438.19;;;12.42;60.43
66381;BME280;53177;52.648;1.214;2023-05-02T12:52:28;102441.72;;;12.45;61.92
66381;BME280;53177;52.648;1.214;2023-05-02T12:55:20;102438.06;;;12.81;61.63
66381;BME280;53177;52.648;1.214;2023-05-02T12:57:46;102439.81;;;12.84;56.95
66381;BME280;53177;52.648;1.214;2023-05-02T13:00:13;102438.19;;;12.43;57.23
66381;BME280;53177;52.648;1.214;2023-05-02T13:02:40;102441.75;;;12.27;59.67
66381;BME280;53177;52.648;1.214;2023-05-02T13:05:16;102446.16;;;12.43;60.24
66381;BME280;53177;52.648;1.214;2023-05-02T13:07:41;102437.28;;;12.55;60.17
66381;BME280;53177;52.648;1.214;2023-05-02T13:10:07;102444.38;;;12.42;57.03
66381;BME280;53177;52.648;1.214;2023-05-02T13:12:33;102448.88;;;12.14;57.36
66381;BME280;53177;52.648;1.214;2023-05-02T13:15:02;102461.25;;;12.18;58.97
66381;BME280;53177;52.648;1.214;2023-05-02T13:17:29;102462.09;;;12.31;56.80
66381;BME280;53177;52.648;1.214;2023-05-02T13:19:54;102457.63;;;12.45;57.34
66381;BME280;53177;52.648;1.214;2023-05-02T13:22:19;102460.25;;;12.57;58.85
66381;BME280;53177;52.648;1.214;2023-05-02T13:24:45;102459.44;;;12.40;57.52
66381;BME280;53177;52.648;1.214;2023-05-02T13:27:11;102462.91;;;12.66;59.40
66381;BME280;53177;52.648;1.214;2023-05-02T13:29:36;102463.78;;;12.58;57.00
66381;BME280;53177;52.648;1.214;2023-05-02T13:32:01;102455.91;;;12.37;57.32
66381;BME280;53177;52.648;1.214;2023-05-02T13:34:27;102456.72;;;12.60;61.08
66381;BME280;53177;52.648;1.214;2023-05-02T13:36:52;102461.13;;;12.61;56.71
66381;BME280;53177;52.648;1.214;2023-05-02T13:39:18;102459.38;;;12.55;58.60
66381;BME280;53177;52.648;1.214;2023-05-02T13:41:43;102456.69;;;12.67;57.78
66381;BME280;53177;52.648;1.214;2023-05-02T13:44:08;102453.19;;;12.55;56.13
66381;BME280;53177;52.648;1.214;2023-05-02T13:46:34;102451.28;;;12.87;60.19
66381;BME280;53177;52.648;1.214;2023-05-02T13:49:04;102455.50;;;13.35;57.43
66381;BME280;53177;52.648;1.214;2023-05-02T13:51:31;102465.38;;;13.01;55.96